Time;durP1;ratioP1;P1;durP2;ratioP2;P2;SDS_P1;SDS_P2;PMS_P1;PMS_P2;Temp;Humidity;BMP_temperature;BMP_pressure;BME280_temperature;BME280_humidity;BME280_pressure;Samples;Min_cycle;Max_cycle;Signal;HPM_P1;HPM_P2
2022/10/03 00:00:09;;;;;;;15.68;6.40;;;;;;;;;;4894460;29;20474;-61
2022/10/03 00:02:37;;;;;;;19.38;7.15;;;;;;;;;;4894732;29;20434;-61
2022/10/03 00:05:03;;;;;;;15.85;6.13;;;;;;;;;;4895227;29;20044;-62
2022/10/03 00:07:44;;;;;;;17.33;6.47;;;;;;;;;;4883227;29;20146;-62
2022/10/03 00:10:44;;;;;;;15.38;6.38;;;;;;;;;;4876829;29;20402;-61
2022/10/03 00:13:19;;;;;;;15.43;5.53;;;;;;;;;;4846645;29;20475;-61
2022/10/03 00:16:10;;;;;;;14.85;6.18;;;;;;;;;;4892855;29;20037;-61
2022/10/03 00:18:50;;;;;;;17.67;5.85;;;;;;;;;;4889147;29;20037;-60
2022/10/03 00:21:37;;;;;;;13.20;5.40;;;;;;;;;;4891405;29;20037;-62
2022/10/03 00:24:19;;;;;;;17.33;5.78;;;;;;;;;;4882763;29;20286;-61
2022/10/03 00:26:58;;;;;;;16.95;6.40;;;;;;;;;;4891787;29;20081;-60
2022/10/03 00:29:26;;;;;;;16.05;5.97;;;;;;;;;;4877799;29;20040;-60
2022/10/03 00:32:03;;;;;;;19.38;7.03;;;;;;;;;;4894411;29;20056;-61
2022/10/03 00:35:03;;;;;;;21.35;7.28;;;;;;;;;;4894523;29;20121;-61
2022/10/03 00:37:40;;;;;;;22.73;6.93;;;;;;;;;;4891202;29;20041;-61
2022/10/03 00:40:36;;;;;;;17.60;6.95;;;;;;;;;;4884084;29;20934;-60
2022/10/03 00:43:32;;;;;;;16.50;7.00;;;;;;;;;;4891758;29;20070;-61
2022/10/03 00:46:12;;;;;;;16.27;6.63;;;;;;;;;;4877713;29;20041;-61
2022/10/03 00:48:52;;;;;;;12.15;6.32;;;;;;;;;;4894277;29;20041;-61
2022/10/03 00:51:26;;;;;;;19.35;6.03;;;;;;;;;;4890544;29;20402;-60
2022/10/03 00:54:04;;;;;;;14.18;6.10;;;;;;;;;;4894515;29;20039;-60
2022/10/03 00:57:15;;;;;;;17.30;5.60;;;;;;;;;;4894000;29;20255;-60
2022/10/03 00:59:43;;;;;;;14.90;6.30;;;;;;;;;;4838528;29;20046;-60
2022/10/03 01:02:25;;;;;;;14.10;5.63;;;;;;;;;;4837293;29;20076;-60
2022/10/03 01:05:02;;;;;;;13.75;6.00;;;;;;;;;;4866402;29;20454;-60
2022/10/03 01:07:27;;;;;;;10.55;5.47;;;;;;;;;;4895643;29;20036;-61
2022/10/03 01:10:02;;;;;;;12.50;5.25;;;;;;;;;;4896155;29;20496;-60
2022/10/03 01:12:46;;;;;;;16.13;5.70;;;;;;;;;;4895684;29;20115;-60
2022/10/03 01:15:29;;;;;;;11.65;5.32;;;;;;;;;;4878889;29;20404;-60
2022/10/03 01:18:51;;;;;;;16.17;5.45;;;;;;;;;;4894125;29;20033;-60
2022/10/03 01:21:25;;;;;;;16.50;5.82;;;;;;;;;;4827471;29;20041;-60
2022/10/03 01:24:28;;;;;;;21.33;6.10;;;;;;;;;;4840360;29;20076;-61
2022/10/03 01:27:10;;;;;;;18.60;6.55;;;;;;;;;;4890034;29;20055;-61
2022/10/03 01:32:29;;;;;;;;;;;;;;;;;;4896413;29;20215;-60
2022/10/03 01:35:16;;;;;;;13.32;5.50;;;;;;;;;;4897661;29;20356;-62
2022/10/03 01:37:51;;;;;;;14.13;5.80;;;;;;;;;;4892293;29;20039;-61
2022/10/03 01:40:43;;;;;;;19.90;6.40;;;;;;;;;;4897833;29;20032;-62
2022/10/03 01:43:37;;;;;;;14.75;6.60;;;;;;;;;;4893350;29;20518;-62
2022/10/03 01:46:39;;;;;;;17.42;6.93;;;;;;;;;;4891129;29;20127;-62
2022/10/03 01:49:19;;;;;;;15.60;5.97;;;;;;;;;;4864847;29;20044;-62
2022/10/03 01:52:18;;;;;;;22.53;6.97;;;;;;;;;;4895697;29;20042;-61
2022/10/03 01:54:55;;;;;;;20.17;6.45;;;;;;;;;;4888745;29;20284;-62
2022/10/03 01:57:41;;;;;;;18.05;6.80;;;;;;;;;;4884560;29;20037;-61
2022/10/03 02:00:16;;;;;;;20.92;7.50;;;;;;;;;;4895986;29;20092;-60
2022/10/03 02:02:46;;;;;;;18.77;7.03;;;;;;;;;;4897097;29;20036;-60
2022/10/03 02:05:34;;;;;;;12.97;5.97;;;;;;;;;;4889294;29;20073;-62
2022/10/03 02:08:02;;;;;;;17.63;6.32;;;;;;;;;;4896395;29;20051;-61
2022/10/03 02:10:57;;;;;;;18.45;7.07;;;;;;;;;;4893662;29;20059;-61
2022/10/03 02:13:29;;;;;;;19.45;7.15;;;;;;;;;;4894000;29;20197;-61
2022/10/03 02:16:19;;;;;;;16.33;7.13;;;;;;;;;;4896095;29;20067;-61
2022/10/03 02:19:10;;;;;;;19.60;6.53;;;;;;;;;;4894792;29;20065;-61
2022/10/03 02:21:50;;;;;;;18.27;6.97;;;;;;;;;;4893029;29;20032;-62
2022/10/03 02:24:15;;;;;;;21.63;8.30;;;;;;;;;;4894143;29;20051;-61
2022/10/03 02:27:08;;;;;;;23.60;8.40;;;;;;;;;;4897659;29;20426;-61
2022/10/03 02:29:42;;;;;;;20.45;8.38;;;;;;;;;;4880751;29;20039;-62
2022/10/03 02:32:26;;;;;;;23.88;8.25;;;;;;;;;;4897607;29;20032;-62
2022/10/03 02:35:22;;;;;;;18.77;7.28;;;;;;;;;;4884605;29;20040;-61
2022/10/03 02:38:12;;;;;;;14.65;7.10;;;;;;;;;;4895852;29;20044;-61
2022/10/03 02:40:41;;;;;;;22.33;7.37;;;;;;;;;;4894470;29;20123;-60
2022/10/03 02:43:32;;;;;;;20.33;7.68;;;;;;;;;;4897741;29;20024;-61
2022/10/03 02:46:03;;;;;;;21.75;7.60;;;;;;;;;;4891144;29;20041;-61
2022/10/03 02:49:06;;;;;;;16.90;7.43;;;;;;;;;;4879071;29;20045;-60
2022/10/03 02:52:09;;;;;;;21.98;7.75;;;;;;;;;;4894242;29;20041;-60
2022/10/03 02:54:57;;;;;;;21.25;6.75;;;;;;;;;;4894422;29;20040;-61
2022/10/03 02:57:59;;;;;;;16.55;7.00;;;;;;;;;;4888239;29;20039;-61
2022/10/03 03:00:52;;;;;;;23.73;7.20;;;;;;;;;;4892810;29;20032;-61
2022/10/03 03:03:39;;;;;;;13.40;6.88;;;;;;;;;;4895747;29;20049;-61
2022/10/03 03:06:29;;;;;;;15.43;6.88;;;;;;;;;;4893302;29;20063;-61
2022/10/03 03:09:28;;;;;;;18.52;7.35;;;;;;;;;;4894054;29;20127;-61
2022/10/03 03:12:12;;;;;;;25.00;7.90;;;;;;;;;;4891497;29;20404;-61
2022/10/03 03:15:15;;;;;;;26.60;7.72;;;;;;;;;;4894020;29;20043;-61
2022/10/03 03:17:47;;;;;;;24.10;8.05;;;;;;;;;;4894126;29;20503;-62
2022/10/03 03:20:39;;;;;;;24.52;8.25;;;;;;;;;;4895849;29;20036;-62
2022/10/03 03:23:07;;;;;;;17.92;7.68;;;;;;;;;;4892001;29;20077;-61
2022/10/03 03:26:07;;;;;;;23.42;8.55;;;;;;;;;;4881316;29;20041;-63
2022/10/03 03:29:08;;;;;;;24.80;7.87;;;;;;;;;;4847562;29;20127;-62
2022/10/03 03:32:03;;;;;;;23.53;8.33;;;;;;;;;;4875996;29;20295;-63
2022/10/03 03:34:59;;;;;;;19.30;7.93;;;;;;;;;;4860274;29;20116;-63
2022/10/03 03:37:33;;;;;;;23.48;8.18;;;;;;;;;;4896009;29;20542;-63
2022/10/03 03:40:28;;;;;;;23.95;8.30;;;;;;;;;;4893704;29;20120;-63
2022/10/03 03:43:34;;;;;;;23.35;7.85;;;;;;;;;;4895324;29;20044;-63
2022/10/03 03:46:20;;;;;;;20.05;7.63;;;;;;;;;;4892493;29;20047;-63
2022/10/03 03:49:23;;;;;;;17.95;7.40;;;;;;;;;;4877908;29;20052;-63
2022/10/03 03:51:57;;;;;;;23.73;7.63;;;;;;;;;;4883485;29;20091;-63
2022/10/03 03:54:34;;;;;;;22.88;8.55;;;;;;;;;;4893369;29;20405;-63
2022/10/03 03:57:15;;;;;;;22.20;8.40;;;;;;;;;;4879559;29;20032;-63
2022/10/03 04:00:04;;;;;;;26.98;8.73;;;;;;;;;;4892758;29;20033;-63
2022/10/03 04:02:48;;;;;;;23.50;8.95;;;;;;;;;;4892400;29;20028;-63
2022/10/03 04:05:43;;;;;;;25.50;8.32;;;;;;;;;;4893879;29;20076;-63
2022/10/03 04:08:42;;;;;;;21.08;8.20;;;;;;;;;;4881223;29;20137;-64
2022/10/03 04:11:28;;;;;;;23.70;8.30;;;;;;;;;;4895554;29;20036;-63
2022/10/03 04:14:21;;;;;;;26.30;9.02;;;;;;;;;;4882076;29;20528;-63
2022/10/03 04:20:14;;;;;;;27.15;9.02;;;;;;;;;;4894039;29;20040;-63
2022/10/03 04:23:00;;;;;;;24.52;9.10;;;;;;;;;;4871278;29;20063;-63
2022/10/03 04:25:31;;;;;;;24.45;8.43;;;;;;;;;;4893805;29;20044;-63
2022/10/03 04:27:59;;;;;;;27.02;8.70;;;;;;;;;;4893835;29;20472;-63
2022/10/03 04:30:44;;;;;;;25.05;8.98;;;;;;;;;;4894886;29;20055;-63
2022/10/03 04:34:00;;;;;;;16.88;8.32;;;;;;;;;;4881709;29;20041;-64
2022/10/03 04:36:46;;;;;;;20.38;8.45;;;;;;;;;;4866722;29;20060;-63
2022/10/03 04:39:33;;;;;;;26.15;8.77;;;;;;;;;;4899336;29;20546;-63
2022/10/03 04:42:17;;;;;;;24.00;8.77;;;;;;;;;;4884293;29;20044;-63
2022/10/03 04:45:07;;;;;;;25.63;9.82;;;;;;;;;;4898687;29;20064;-63
2022/10/03 04:47:56;;;;;;;24.45;11.10;;;;;;;;;;4879663;29;20045;-63
2022/10/03 04:50:34;;;;;;;31.17;10.65;;;;;;;;;;4893029;29;20041;-63
2022/10/03 04:53:14;;;;;;;19.67;8.88;;;;;;;;;;4887590;29;20039;-64
2022/10/03 04:55:51;;;;;;;27.70;10.10;;;;;;;;;;4878477;29;20169;-63
2022/10/03 04:58:36;;;;;;;26.60;10.05;;;;;;;;;;4884368;29;20037;-64
2022/10/03 05:01:07;;;;;;;30.52;9.88;;;;;;;;;;4889177;29;20041;-63
2022/10/03 05:03:47;;;;;;;28.90;9.90;;;;;;;;;;4876611;29;20060;-63
2022/10/03 05:06:47;;;;;;;28.67;10.50;;;;;;;;;;4894330;29;20112;-64
2022/10/03 05:09:24;;;;;;;30.80;10.57;;;;;;;;;;4886021;29;20050;-64
2022/10/03 05:11:58;;;;;;;29.40;10.10;;;;;;;;;;4894191;29;20040;-65
2022/10/03 05:14:56;;;;;;;29.67;9.98;;;;;;;;;;4897445;29;20050;-64
2022/10/03 05:17:24;;;;;;;29.33;10.35;;;;;;;;;;4894048;29;20493;-62
2022/10/03 05:20:11;;;;;;;31.10;12.02;;;;;;;;;;4896285;29;20394;-64
2022/10/03 05:22:53;;;;;;;22.63;10.10;;;;;;;;;;4895341;29;20096;-64
2022/10/03 05:25:28;;;;;;;24.35;9.98;;;;;;;;;;4896000;29;20063;-64
2022/10/03 05:28:05;;;;;;;21.73;10.70;;;;;;;;;;4898303;29;20044;-64
2022/10/03 05:30:53;;;;;;;26.88;10.07;;;;;;;;;;4896009;29;20040;-64
2022/10/03 05:33:49;;;;;;;20.35;9.40;;;;;;;;;;4898001;29;20111;-64
2022/10/03 05:36:28;;;;;;;25.23;9.75;;;;;;;;;;4865825;29;20064;-64
2022/10/03 05:39:22;;;;;;;29.23;10.05;;;;;;;;;;4881029;29;20041;-64
2022/10/03 05:41:53;;;;;;;24.33;9.40;;;;;;;;;;4896091;29;20039;-64
2022/10/03 05:44:31;;;;;;;23.35;9.27;;;;;;;;;;4894856;29;20085;-63
2022/10/03 05:47:01;;;;;;;24.73;9.43;;;;;;;;;;4896442;29;20076;-64
2022/10/03 05:49:52;;;;;;;26.73;9.30;;;;;;;;;;4896064;29;20064;-64
2022/10/03 05:52:23;;;;;;;28.23;10.27;;;;;;;;;;4897957;29;20039;-64
2022/10/03 05:54:54;;;;;;;;;;;;;;;;;;4896941;29;20072;-64
2022/10/03 05:57:43;;;;;;;25.80;9.85;;;;;;;;;;4898059;29;19943;-64
2022/10/03 06:00:43;;;;;;;28.75;10.48;;;;;;;;;;4897825;29;20040;-65
2022/10/03 06:03:30;;;;;;;27.70;10.38;;;;;;;;;;4879335;29;20040;-63
2022/10/03 06:06:07;;;;;;;26.23;10.20;;;;;;;;;;4888563;29;20123;-63
2022/10/03 06:08:45;;;;;;;25.92;10.75;;;;;;;;;;4895758;29;20024;-63
2022/10/03 06:11:45;;;;;;;29.45;11.02;;;;;;;;;;4884751;29;20037;-63
2022/10/03 06:14:27;;;;;;;25.77;11.48;;;;;;;;;;4896785;29;20124;-64
2022/10/03 06:17:11;;;;;;;36.38;11.68;;;;;;;;;;4897690;29;20128;-62
2022/10/03 06:20:03;;;;;;;34.92;12.73;;;;;;;;;;4896424;29;20068;-64
2022/10/03 06:23:06;;;;;;;29.90;11.57;;;;;;;;;;4879435;29;20060;-62
2022/10/03 06:25:53;;;;;;;31.92;12.48;;;;;;;;;;4894451;29;20048;-67
2022/10/03 06:28:40;;;;;;;39.08;12.80;;;;;;;;;;4896138;29;20477;-66
2022/10/03 06:31:30;;;;;;;33.42;12.63;;;;;;;;;;4896153;29;20100;-66
2022/10/03 06:34:17;;;;;;;34.47;13.90;;;;;;;;;;4897674;29;20028;-66
2022/10/03 06:36:48;;;;;;;39.08;14.75;;;;;;;;;;4894439;29;20044;-65
2022/10/03 06:40:04;;;;;;;37.50;14.65;;;;;;;;;;4896090;29;20489;-64
2022/10/03 06:43:00;;;;;;;39.90;14.38;;;;;;;;;;4860836;29;20049;-65
2022/10/03 06:46:06;;;;;;;30.70;13.55;;;;;;;;;;4886657;29;20070;-62
2022/10/03 06:49:05;;;;;;;37.95;15.00;;;;;;;;;;4895460;29;20151;-64
2022/10/03 06:51:43;;;;;;;38.10;15.32;;;;;;;;;;4895534;29;20060;-64
2022/10/03 06:54:23;;;;;;;38.92;16.83;;;;;;;;;;4892925;29;20040;-64
2022/10/03 06:57:07;;;;;;;38.22;16.23;;;;;;;;;;4895439;29;20043;-64
2022/10/03 07:00:11;;;;;;;44.00;16.67;;;;;;;;;;4892253;29;20040;-64
2022/10/03 07:03:08;;;;;;;37.85;16.50;;;;;;;;;;4833456;29;20048;-64
2022/10/03 07:05:52;;;;;;;39.80;16.48;;;;;;;;;;4825717;29;20070;-64
2022/10/03 07:08:41;;;;;;;36.78;15.95;;;;;;;;;;4865563;29;20390;-65
2022/10/03 07:11:09;;;;;;;40.30;16.42;;;;;;;;;;4863815;29;20037;-65
2022/10/03 07:14:19;;;;;;;35.50;16.80;;;;;;;;;;4877766;29;20044;-64
2022/10/03 07:17:04;;;;;;;40.15;16.45;;;;;;;;;;4861594;29;20052;-64
2022/10/03 07:19:54;;;;;;;38.25;16.88;;;;;;;;;;4876913;29;20036;-63
2022/10/03 07:22:44;;;;;;;36.78;16.13;;;;;;;;;;4878316;29;20504;-63
2022/10/03 07:25:38;;;;;;;34.20;15.40;;;;;;;;;;4857584;29;20033;-64
2022/10/03 07:28:48;;;;;;;36.15;16.23;;;;;;;;;;4863882;29;20056;-64
2022/10/03 07:31:47;;;;;;;32.63;15.38;;;;;;;;;;4875720;29;20088;-62
2022/10/03 07:34:25;;;;;;;34.85;15.32;;;;;;;;;;4849083;29;20053;-62
2022/10/03 07:40:11;;;;;;;31.98;15.52;;;;;;;;;;4877218;29;20059;-62
2022/10/03 07:43:11;;;;;;;34.20;15.57;;;;;;;;;;4876223;29;20033;-61
2022/10/03 07:45:44;;;;;;;38.83;15.67;;;;;;;;;;4828948;29;20045;-63
2022/10/03 07:48:16;;;;;;;35.08;16.02;;;;;;;;;;4875811;29;20032;-62
2022/10/03 07:51:01;;;;;;;38.25;16.55;;;;;;;;;;4874235;29;20527;-61
2022/10/03 07:53:48;;;;;;;37.35;17.20;;;;;;;;;;4873908;29;20097;-61
2022/10/03 07:56:32;;;;;;;46.50;17.33;;;;;;;;;;4876217;29;20175;-64
2022/10/03 07:59:06;;;;;;;33.83;15.63;;;;;;;;;;4876945;29;20036;-62
2022/10/03 08:01:32;;;;;;;33.83;15.05;;;;;;;;;;4876029;29;20094;-62
2022/10/03 08:04:13;;;;;;;35.40;15.23;;;;;;;;;;4859407;29;20056;-63
2022/10/03 08:06:44;;;;;;;34.15;15.38;;;;;;;;;;4892058;29;20059;-63
2022/10/03 08:09:16;;;;;;;35.10;14.43;;;;;;;;;;4868366;29;20068;-64
2022/10/03 08:12:19;;;;;;;32.20;14.65;;;;;;;;;;4891612;29;20044;-63
2022/10/03 08:15:04;;;;;;;29.15;14.48;;;;;;;;;;4894232;29;20037;-64
2022/10/03 08:17:44;;;;;;;28.05;13.82;;;;;;;;;;4895632;29;20115;-62
2022/10/03 08:20:27;;;;;;;24.30;12.90;;;;;;;;;;4894459;29;20079;-64
2022/10/03 08:22:59;;;;;;;24.80;12.77;;;;;;;;;;4895651;29;20029;-64
2022/10/03 08:25:45;;;;;;;24.38;13.25;;;;;;;;;;4876384;29;20044;-65
2022/10/03 08:28:31;;;;;;;26.98;12.82;;;;;;;;;;4881730;29;20059;-64
2022/10/03 08:31:03;;;;;;;27.10;12.70;;;;;;;;;;4892537;29;20028;-62
2022/10/03 08:33:37;;;;;;;25.35;12.48;;;;;;;;;;4895145;29;20044;-62
2022/10/03 08:36:30;;;;;;;24.38;11.93;;;;;;;;;;4888450;29;20041;-63
2022/10/03 08:39:12;;;;;;;21.95;11.23;;;;;;;;;;4895215;29;20385;-63
2022/10/03 08:42:14;;;;;;;28.45;11.32;;;;;;;;;;4892209;29;20759;-64
2022/10/03 08:45:21;;;;;;;25.05;10.35;;;;;;;;;;4894506;29;20047;-64
2022/10/03 08:48:12;;;;;;;20.35;10.02;;;;;;;;;;4818972;29;20423;-64
2022/10/03 08:50:51;;;;;;;21.20;10.10;;;;;;;;;;4823564;29;20381;-64
2022/10/03 08:53:47;;;;;;;23.15;10.63;;;;;;;;;;4822829;29;20130;-64
2022/10/03 08:56:44;;;;;;;20.13;8.82;;;;;;;;;;4843692;29;20041;-64
2022/10/03 08:59:27;;;;;;;19.70;8.95;;;;;;;;;;4820464;29;20499;-62
2022/10/03 09:02:20;;;;;;;21.00;9.38;;;;;;;;;;4835536;29;20033;-63
2022/10/03 09:05:10;;;;;;;26.50;9.65;;;;;;;;;;4816069;29;20137;-64
2022/10/03 09:08:12;;;;;;;17.58;9.05;;;;;;;;;;4819693;29;20505;-63
2022/10/03 09:11:10;;;;;;;15.63;9.20;;;;;;;;;;4829420;29;20125;-63
2022/10/03 09:13:35;;;;;;;17.98;8.55;;;;;;;;;;4834972;29;20072;-64
2022/10/03 09:16:09;;;;;;;19.38;7.93;;;;;;;;;;4842841;29;20026;-63
2022/10/03 09:19:02;;;;;;;18.23;7.80;;;;;;;;;;4870473;29;20056;-63
2022/10/03 09:21:43;;;;;;;21.63;7.30;;;;;;;;;;4898236;29;20040;-63
2022/10/03 09:24:30;;;;;;;14.88;6.40;;;;;;;;;;4897199;29;20033;-64
2022/10/03 09:27:21;;;;;;;15.75;6.63;;;;;;;;;;4896543;29;20103;-64
2022/10/03 09:29:56;;;;;;;16.63;6.85;;;;;;;;;;4879674;29;20041;-65
2022/10/03 09:32:53;;;;;;;18.50;6.65;;;;;;;;;;4895787;29;20095;-64
2022/10/03 09:35:37;;;;;;;15.38;5.75;;;;;;;;;;4894111;29;20052;-64
2022/10/03 09:38:24;;;;;;;14.88;5.40;;;;;;;;;;4898542;29;20111;-65
2022/10/03 09:41:11;;;;;;;13.98;5.60;;;;;;;;;;4896737;29;20033;-64
2022/10/03 09:43:58;;;;;;;15.43;5.55;;;;;;;;;;4897921;29;20044;-64
2022/10/03 09:46:45;;;;;;;13.50;5.82;;;;;;;;;;4893730;29;20028;-67
2022/10/03 09:49:34;;;;;;;8.77;4.20;;;;;;;;;;4881974;29;20397;-66
2022/10/03 09:51:59;;;;;;;10.52;4.35;;;;;;;;;;4897477;29;20436;-65
2022/10/03 09:55:03;;;;;;;14.57;4.18;;;;;;;;;;4898297;29;20040;-65
2022/10/03 09:58:02;;;;;;;13.90;4.15;;;;;;;;;;4876064;29;20055;-65
2022/10/03 10:01:05;;;;;;;13.88;3.80;;;;;;;;;;4813772;29;20054;-67
2022/10/03 10:04:25;;;;;;;11.57;4.38;;;;;;;;;;4892506;29;20033;-66
2022/10/03 10:07:15;;;;;;;14.07;4.97;;;;;;;;;;4837809;29;20480;-64
2022/10/03 10:09:59;;;;;;;12.18;4.35;;;;;;;;;;4877105;29;20049;-64
2022/10/03 10:12:50;;;;;;;12.15;4.13;;;;;;;;;;4894966;29;20064;-66
2022/10/03 10:15:37;;;;;;;9.43;3.60;;;;;;;;;;4898729;29;20029;-66
2022/10/03 10:18:24;;;;;;;15.70;3.55;;;;;;;;;;4903188;29;20074;-66
2022/10/03 10:21:35;;;;;;;8.75;2.00;;;;;;;;;;4878201;29;20033;-63
2022/10/03 10:24:09;;;;;;;;;;;;;;;;;;4880534;29;20037;-66
2022/10/03 10:27:09;;;;;;;7.43;1.90;;;;;;;;;;4895192;29;19947;-63
2022/10/03 10:30:04;;;;;;;8.35;1.30;;;;;;;;;;4892198;29;20048;-64
2022/10/03 10:33:03;;;;;;;6.80;1.67;;;;;;;;;;4879693;29;20060;-65
2022/10/03 10:36:05;;;;;;;7.85;1.50;;;;;;;;;;4897273;29;20092;-65
2022/10/03 10:38:49;;;;;;;8.73;1.60;;;;;;;;;;4883948;29;20470;-65
2022/10/03 10:41:42;;;;;;;8.35;1.50;;;;;;;;;;4897833;29;20805;-67
2022/10/03 10:44:37;;;;;;;8.13;1.50;;;;;;;;;;4896098;29;20040;-66
2022/10/03 10:47:12;;;;;;;6.13;1.33;;;;;;;;;;4896950;29;20040;-65
2022/10/03 10:50:06;;;;;;;4.05;1.48;;;;;;;;;;4896228;29;20029;-64
2022/10/03 10:53:11;;;;;;;9.82;1.55;;;;;;;;;;4896188;29;20043;-64
2022/10/03 10:56:12;;;;;;;10.88;1.98;;;;;;;;;;4896673;29;20446;-63
2022/10/03 10:59:00;;;;;;;7.43;1.80;;;;;;;;;;4895608;29;20056;-63
2022/10/03 11:02:12;;;;;;;7.60;1.58;;;;;;;;;;4895921;29;20104;-62
2022/10/03 11:05:05;;;;;;;5.50;1.50;;;;;;;;;;4878272;29;20394;-62
2022/10/03 11:07:54;;;;;;;6.28;1.50;;;;;;;;;;4887837;29;20045;-62
2022/10/03 11:10:25;;;;;;;6.10;1.58;;;;;;;;;;4896342;29;20409;-62
2022/10/03 11:13:29;;;;;;;7.75;1.55;;;;;;;;;;4894926;29;20075;-62
2022/10/03 11:16:10;;;;;;;5.43;1.40;;;;;;;;;;4894420;29;20059;-63
2022/10/03 11:19:02;;;;;;;6.13;1.67;;;;;;;;;;4897314;29;20522;-62
2022/10/03 11:21:47;;;;;;;5.35;1.50;;;;;;;;;;4893022;29;20482;-62
2022/10/03 11:24:28;;;;;;;4.93;1.45;;;;;;;;;;4895519;29;20032;-62
2022/10/03 11:27:30;;;;;;;8.57;1.80;;;;;;;;;;4892082;29;20032;-63
2022/10/03 11:30:05;;;;;;;6.88;1.60;;;;;;;;;;4889921;29;20103;-64
2022/10/03 11:33:00;;;;;;;6.78;1.70;;;;;;;;;;4894493;29;20409;-63
2022/10/03 11:35:55;;;;;;;5.97;1.40;;;;;;;;;;4891031;29;20033;-63
2022/10/03 11:38:38;;;;;;;5.53;1.45;;;;;;;;;;4871711;29;20493;-63
2022/10/03 11:41:41;;;;;;;8.70;2.08;;;;;;;;;;4889033;29;20039;-62
2022/10/03 11:44:35;;;;;;;6.20;1.65;;;;;;;;;;4894601;29;20033;-62
2022/10/03 11:47:13;;;;;;;5.65;1.58;;;;;;;;;;4887776;29;20039;-63
2022/10/03 11:50:04;;;;;;;8.80;1.52;;;;;;;;;;4888666;29;20029;-63
2022/10/03 11:52:55;;;;;;;5.97;1.48;;;;;;;;;;4895909;29;20096;-63
2022/10/03 11:55:32;;;;;;;6.78;1.70;;;;;;;;;;4873736;29;20440;-63
2022/10/03 11:58:07;;;;;;;4.65;1.73;;;;;;;;;;4892966;29;20830;-63
2022/10/03 12:00:36;;;;;;;5.30;1.60;;;;;;;;;;4896584;29;20092;-63
2022/10/03 12:03:01;;;;;;;4.07;1.55;;;;;;;;;;4874742;29;20841;-64
2022/10/03 12:05:46;;;;;;;6.93;1.60;;;;;;;;;;4894845;29;20056;-64
2022/10/03 12:08:53;;;;;;;4.97;1.30;;;;;;;;;;4894844;29;20049;-64
2022/10/03 12:11:40;;;;;;;5.72;1.48;;;;;;;;;;4892592;29;20063;-64
2022/10/03 12:14:08;;;;;;;6.78;1.60;;;;;;;;;;4895814;29;20051;-63
2022/10/03 12:16:58;;;;;;;5.20;1.60;;;;;;;;;;4894304;29;20032;-64
2022/10/03 12:19:52;;;;;;;8.75;1.60;;;;;;;;;;4896155;29;20393;-62
2022/10/03 12:22:54;;;;;;;5.68;1.55;;;;;;;;;;4882427;29;20450;-63
2022/10/03 12:25:24;;;;;;;6.72;1.60;;;;;;;;;;4844049;29;20101;-64
2022/10/03 12:28:10;;;;;;;4.47;1.60;;;;;;;;;;4863800;29;20049;-64
2022/10/03 12:31:08;;;;;;;5.85;1.60;;;;;;;;;;4861176;29;20124;-63
2022/10/03 12:34:36;;;;;;;4.22;1.30;;;;;;;;;;4844000;29;20057;-64
2022/10/03 12:37:21;;;;;;;7.32;1.23;;;;;;;;;;4783030;30;20577;-63
2022/10/03 12:39:59;;;;;;;7.28;1.65;;;;;;;;;;4855214;29;20033;-62
2022/10/03 12:42:32;;;;;;;3.78;1.15;;;;;;;;;;4856410;29;20092;-62
2022/10/03 12:45:26;;;;;;;8.07;1.58;;;;;;;;;;4855678;29;20124;-63
2022/10/03 12:48:21;;;;;;;6.00;1.30;;;;;;;;;;4855682;29;20037;-62
2022/10/03 12:51:11;;;;;;;4.35;1.33;;;;;;;;;;4856986;29;20628;-63
2022/10/03 12:53:47;;;;;;;6.47;1.40;;;;;;;;;;4859843;29;20112;-64
2022/10/03 12:56:24;;;;;;;5.35;1.30;;;;;;;;;;4860102;29;20045;-62
2022/10/03 12:59:06;;;;;;;4.45;1.30;;;;;;;;;;4859388;29;20038;-63
2022/10/03 13:01:56;;;;;;;5.88;1.52;;;;;;;;;;4869666;29;20048;-63
2022/10/03 13:04:22;;;;;;;5.57;1.43;;;;;;;;;;4882647;29;20504;-64
2022/10/03 13:06:49;;;;;;;6.43;1.60;;;;;;;;;;4898444;29;20060;-64
2022/10/03 13:09:42;;;;;;;4.32;1.20;;;;;;;;;;4899293;29;20034;-63
2022/10/03 13:12:35;;;;;;;7.72;1.88;;;;;;;;;;4898381;29;20096;-63
2022/10/03 13:15:39;;;;;;;7.40;1.80;;;;;;;;;;4892958;29;20040;-63
2022/10/03 13:18:13;;;;;;;7.07;1.58;;;;;;;;;;4898155;29;20059;-63
2022/10/03 13:20:44;;;;;;;3.35;1.17;;;;;;;;;;4899444;29;20463;-63
2022/10/03 13:23:29;;;;;;;;;;;;;;;;;;4897894;29;20389;-67
2022/10/03 13:26:14;;;;;;;4.60;1.50;;;;;;;;;;4894638;29;20211;-65
2022/10/03 13:28:58;;;;;;;7.03;1.70;;;;;;;;;;4882758;29;20508;-65
2022/10/03 13:31:32;;;;;;;7.75;1.30;;;;;;;;;;4899037;29;20420;-65
2022/10/03 13:34:02;;;;;;;8.27;1.60;;;;;;;;;;4896127;29;20036;-66
2022/10/03 13:36:39;;;;;;;4.70;1.50;;;;;;;;;;4896403;29;20059;-66
2022/10/03 13:39:24;;;;;;;5.78;1.50;;;;;;;;;;4896415;29;20024;-66
2022/10/03 13:42:04;;;;;;;8.55;1.88;;;;;;;;;;4898146;29;20489;-66
2022/10/03 13:44:39;;;;;;;9.13;1.70;;;;;;;;;;4887342;29;20025;-66
2022/10/03 13:47:19;;;;;;;5.68;2.38;;;;;;;;;;4885434;29;20048;-66
2022/10/03 13:49:55;;;;;;;5.95;1.88;;;;;;;;;;4892340;29;20036;-62
2022/10/03 13:52:36;;;;;;;4.40;1.27;;;;;;;;;;4880615;29;20037;-65
2022/10/03 13:55:50;;;;;;;6.55;1.20;;;;;;;;;;4893180;29;20040;-60
2022/10/03 13:58:31;;;;;;;4.88;1.67;;;;;;;;;;4894360;29;20053;-60
2022/10/03 14:01:02;;;;;;;11.48;1.58;;;;;;;;;;4893530;29;20104;-62
2022/10/03 14:03:50;;;;;;;6.80;1.80;;;;;;;;;;4897805;29;20073;-61
2022/10/03 14:06:26;;;;;;;5.65;1.45;;;;;;;;;;4898790;29;20080;-62
2022/10/03 14:09:00;;;;;;;3.65;1.40;;;;;;;;;;4895932;29;20040;-62
2022/10/03 14:11:44;;;;;;;4.82;1.33;;;;;;;;;;4898062;29;20052;-61
2022/10/03 14:14:22;;;;;;;5.88;1.40;;;;;;;;;;4889957;29;20067;-61
2022/10/03 14:16:54;;;;;;;4.20;1.20;;;;;;;;;;4897965;29;20037;-61
2022/10/03 14:19:42;;;;;;;4.75;1.42;;;;;;;;;;4892884;29;20044;-61
2022/10/03 14:22:28;;;;;;;4.70;1.27;;;;;;;;;;4881144;29;20036;-61
2022/10/03 14:25:15;;;;;;;4.55;1.75;;;;;;;;;;4897197;29;20033;-61
2022/10/03 14:27:47;;;;;;;8.23;1.63;;;;;;;;;;4896042;29;20037;-61
2022/10/03 14:30:33;;;;;;;9.32;3.53;;;;;;;;;;4893896;29;20045;-61
2022/10/03 14:33:16;;;;;;;4.43;1.45;;;;;;;;;;4895522;29;20474;-61
2022/10/03 14:36:01;;;;;;;11.13;3.10;;;;;;;;;;4895443;29;20029;-61
2022/10/03 14:38:59;;;;;;;5.35;1.52;;;;;;;;;;4897110;29;20110;-61
2022/10/03 14:41:45;;;;;;;4.60;1.42;;;;;;;;;;4896707;29;20409;-61
2022/10/03 14:44:27;;;;;;;5.78;1.70;;;;;;;;;;4894798;29;20037;-61
2022/10/03 14:47:00;;;;;;;18.33;10.80;;;;;;;;;;4895083;29;20379;-61
2022/10/03 14:49:31;;;;;;;5.93;1.50;;;;;;;;;;4893203;29;20127;-62
2022/10/03 14:52:25;;;;;;;5.95;1.50;;;;;;;;;;4893621;29;20047;-62
2022/10/03 14:54:54;;;;;;;5.72;1.60;;;;;;;;;;4890836;29;20088;-61
2022/10/03 14:57:41;;;;;;;5.05;1.63;;;;;;;;;;4897145;29;20033;-61
2022/10/03 15:00:08;;;;;;;3.67;1.60;;;;;;;;;;4895369;29;20075;-61
2022/10/03 15:02:36;;;;;;;3.55;1.35;;;;;;;;;;4896794;29;20076;-59
2022/10/03 15:05:06;;;;;;;4.68;1.20;;;;;;;;;;4892379;29;20044;-59
2022/10/03 15:07:37;;;;;;;;;;;;;;;;;;4897214;29;20036;-58
2022/10/03 15:10:07;;;;;;;6.72;1.30;;;;;;;;;;4896073;29;19946;-58
2022/10/03 15:12:36;;;;;;;3.77;1.67;;;;;;;;;;4896155;29;20020;-58
2022/10/03 15:15:02;;;;;;;4.43;1.30;;;;;;;;;;4895551;29;20029;-59
2022/10/03 15:17:32;;;;;;;3.85;1.13;;;;;;;;;;4896685;29;20493;-60
2022/10/03 15:20:00;;;;;;;4.55;1.23;;;;;;;;;;4895929;29;20496;-59
2022/10/03 15:22:41;;;;;;;4.88;1.55;;;;;;;;;;4895541;29;20044;-59
2022/10/03 15:25:21;;;;;;;4.80;1.30;;;;;;;;;;4894268;29;20029;-59
2022/10/03 15:27:50;;;;;;;3.90;1.30;;;;;;;;;;4894896;29;20036;-58
2022/10/03 15:30:29;;;;;;;5.05;1.33;;;;;;;;;;4893667;29;20533;-58
2022/10/03 15:33:06;;;;;;;5.80;1.60;;;;;;;;;;4895552;29;20123;-59
2022/10/03 15:35:37;;;;;;;5.97;1.50;;;;;;;;;;4895476;29;20040;-57
2022/10/03 15:38:25;;;;;;;4.32;1.30;;;;;;;;;;4894987;29;20028;-58
2022/10/03 15:41:11;;;;;;;5.65;1.30;;;;;;;;;;4895583;29;20033;-59
2022/10/03 15:43:51;;;;;;;7.40;2.60;;;;;;;;;;4895000;29;20028;-56
2022/10/03 15:46:33;;;;;;;9.43;4.70;;;;;;;;;;4894861;29;20040;-58
2022/10/03 15:49:21;;;;;;;5.10;1.30;;;;;;;;;;4894857;29;20044;-57
2022/10/03 15:51:47;;;;;;;4.65;1.63;;;;;;;;;;4886840;29;20041;-58
2022/10/03 15:54:20;;;;;;;4.88;1.45;;;;;;;;;;4889606;29;20118;-58
2022/10/03 15:56:51;;;;;;;4.32;1.50;;;;;;;;;;4892295;29;20115;-58
2022/10/03 15:59:26;;;;;;;5.90;1.70;;;;;;;;;;4895242;29;20044;-58
2022/10/03 16:01:54;;;;;;;3.30;1.25;;;;;;;;;;4895757;29;20064;-60
2022/10/03 16:04:26;;;;;;;4.78;1.30;;;;;;;;;;4893354;29;20039;-57
2022/10/03 16:07:04;;;;;;;4.80;1.40;;;;;;;;;;4895709;29;20041;-59
2022/10/03 16:09:45;;;;;;;5.63;2.00;;;;;;;;;;4895895;29;20036;-59
2022/10/03 16:12:29;;;;;;;8.05;1.73;;;;;;;;;;4894116;29;21620;-58
2022/10/03 16:15:19;;;;;;;5.53;1.60;;;;;;;;;;4882857;29;20219;-60
2022/10/03 16:17:53;;;;;;;7.63;2.03;;;;;;;;;;4895625;29;20039;-59
2022/10/03 16:20:30;;;;;;;5.82;1.52;;;;;;;;;;4896275;29;20457;-58
2022/10/03 16:23:07;;;;;;;6.38;1.55;;;;;;;;;;4889262;29;20051;-57
2022/10/03 16:26:05;;;;;;;6.43;2.20;;;;;;;;;;4899098;29;20514;-57